sensor_id;sensor_type;location;lat;lon;timestamp;temperature;humidity
60495;DHT22;46342;49.046;11.920;2023-03-20T00:00:50;11.50;56.60
60495;DHT22;46342;49.046;11.920;2023-03-20T00:03:16;11.50;56.90
60495;DHT22;46342;49.046;11.920;2023-03-20T00:05:42;11.50;56.60
60495;DHT22;46342;49.046;11.920;2023-03-20T00:08:08;11.50;56.60
60495;DHT22;46342;49.046;11.920;2023-03-20T00:10:43;11.50;56.70
60495;DHT22;46342;49.046;11.920;2023-03-20T00:13:22;11.50;57.40
60495;DHT22;46342;49.046;11.920;2023-03-20T00:15:49;11.50;57.30
60495;DHT22;46342;49.046;11.920;2023-03-20T00:18:17;11.50;56.70
60495;DHT22;46342;49.046;11.920;2023-03-20T00:20:45;11.50;56.80
60495;DHT22;46342;49.046;11.920;2023-03-20T00:23:11;11.40;56.60
60495;DHT22;46342;49.046;11.920;2023-03-20T00:25:38;11.40;56.60
60495;DHT22;46342;49.046;11.920;2023-03-20T00:30:48;11.50;57.20
60495;DHT22;46342;49.046;11.920;2023-03-20T00:33:14;11.40;56.50
60495;DHT22;46342;49.046;11.920;2023-03-20T00:35:41;11.40;56.50
60495;DHT22;46342;49.046;11.920;2023-03-20T00:38:07;11.40;56.50
60495;DHT22;46342;49.046;11.920;2023-03-20T00:40:33;11.40;56.80
60495;DHT22;46342;49.046;11.920;2023-03-20T00:43:00;11.40;56.80
60495;DHT22;46342;49.046;11.920;2023-03-20T00:45:27;11.30;56.90
60495;DHT22;46342;49.046;11.920;2023-03-20T00:47:54;11.40;56.80
60495;DHT22;46342;49.046;11.920;2023-03-20T00:50:24;11.30;56.60
60495;DHT22;46342;49.046;11.920;2023-03-20T00:52:50;11.30;56.70
60495;DHT22;46342;49.046;11.920;2023-03-20T00:55:17;11.20;56.50
60495;DHT22;46342;49.046;11.920;2023-03-20T00:57:50;11.30;56.60
60495;DHT22;46342;49.046;11.920;2023-03-20T01:00:21;11.20;56.80
60495;DHT22;46342;49.046;11.920;2023-03-20T01:02:48;11.20;56.70
60495;DHT22;46342;49.046;11.920;2023-03-20T01:05:13;11.20;56.50
60495;DHT22;46342;49.046;11.920;2023-03-20T01:07:39;11.10;56.50
60495;DHT22;46342;49.046;11.920;2023-03-20T01:10:06;11.10;56.60
60495;DHT22;46342;49.046;11.920;2023-03-20T01:12:32;11.10;56.60
60495;DHT22;46342;49.046;11.920;2023-03-20T01:14:57;11.00;56.50
60495;DHT22;46342;49.046;11.920;2023-03-20T01:17:25;11.00;56.60
60495;DHT22;46342;49.046;11.920;2023-03-20T01:19:51;11.00;56.60
60495;DHT22;46342;49.046;11.920;2023-03-20T01:22:16;11.00;56.60
60495;DHT22;46342;49.046;11.920;2023-03-20T01:24:42;10.90;56.60
60495;DHT22;46342;49.046;11.920;2023-03-20T01:27:16;10.90;56.50
60495;DHT22;46342;49.046;11.920;2023-03-20T01:29:43;10.90;56.80
60495;DHT22;46342;49.046;11.920;2023-03-20T01:32:15;10.80;56.30
60495;DHT22;46342;49.046;11.920;2023-03-20T01:34:41;10.80;56.60
60495;DHT22;46342;49.046;11.920;2023-03-20T01:37:11;10.70;56.20
60495;DHT22;46342;49.046;11.920;2023-03-20T01:39:38;10.70;56.40
60495;DHT22;46342;49.046;11.920;2023-03-20T01:42:05;10.70;56.20
60495;DHT22;46342;49.046;11.920;2023-03-20T01:44:32;10.60;56.30
60495;DHT22;46342;49.046;11.920;2023-03-20T01:46:59;10.60;56.40
60495;DHT22;46342;49.046;11.920;2023-03-20T01:51:53;10.50;56.40
60495;DHT22;46342;49.046;11.920;2023-03-20T01:54:31;10.50;56.40
60495;DHT22;46342;49.046;11.920;2023-03-20T01:57:21;10.50;56.90
60495;DHT22;46342;49.046;11.920;2023-03-20T01:59:54;10.50;56.70
60495;DHT22;46342;49.046;11.920;2023-03-20T02:02:24;10.40;56.10
60495;DHT22;46342;49.046;11.920;2023-03-20T02:04:54;10.40;56.90
60495;DHT22;46342;49.046;11.920;2023-03-20T02:07:22;10.30;56.40
60495;DHT22;46342;49.046;11.920;2023-03-20T02:09:49;10.30;56.40
60495;DHT22;46342;49.046;11.920;2023-03-20T02:12:16;10.20;56.20
60495;DHT22;46342;49.046;11.920;2023-03-20T02:14:42;10.20;56.30
60495;DHT22;46342;49.046;11.920;2023-03-20T02:17:10;10.10;56.20
60495;DHT22;46342;49.046;11.920;2023-03-20T02:33:21;9.90;57.40
60495;DHT22;46342;49.046;11.920;2023-03-20T02:38:53;9.80;57.60
60495;DHT22;46342;49.046;11.920;2023-03-20T02:41:27;9.80;58.10
60495;DHT22;46342;49.046;11.920;2023-03-20T02:44:31;9.70;57.30
60495;DHT22;46342;49.046;11.920;2023-03-20T02:47:12;9.70;58.20
60495;DHT22;46342;49.046;11.920;2023-03-20T03:02:52;9.60;58.20
60495;DHT22;46342;49.046;11.920;2023-03-20T03:05:22;9.60;58.10
60495;DHT22;46342;49.046;11.920;2023-03-20T03:07:51;9.50;58.00
60495;DHT22;46342;49.046;11.920;2023-03-20T03:10:25;9.50;58.00
60495;DHT22;46342;49.046;11.920;2023-03-20T03:12:55;9.50;58.10
60495;DHT22;46342;49.046;11.920;2023-03-20T03:17:52;9.50;58.30
60495;DHT22;46342;49.046;11.920;2023-03-20T03:20:27;9.50;58.10
60495;DHT22;46342;49.046;11.920;2023-03-20T03:22:53;9.50;58.70
60495;DHT22;46342;49.046;11.920;2023-03-20T03:25:23;9.50;58.30
60495;DHT22;46342;49.046;11.920;2023-03-20T03:28:05;9.50;58.80
60495;DHT22;46342;49.046;11.920;2023-03-20T03:30:35;9.50;59.00
60495;DHT22;46342;49.046;11.920;2023-03-20T03:33:12;9.50;58.70
60495;DHT22;46342;49.046;11.920;2023-03-20T03:35:41;9.50;59.30
60495;DHT22;46342;49.046;11.920;2023-03-20T03:41:17;9.50;59.70
60495;DHT22;46342;49.046;11.920;2023-03-20T03:46:31;9.60;60.00
60495;DHT22;46342;49.046;11.920;2023-03-20T03:49:01;9.60;59.20
60495;DHT22;46342;49.046;11.920;2023-03-20T03:51:30;9.60;59.10
60495;DHT22;46342;49.046;11.920;2023-03-20T03:54:01;9.60;59.20
60495;DHT22;46342;49.046;11.920;2023-03-20T03:56:30;9.60;59.20
60495;DHT22;46342;49.046;11.920;2023-03-20T03:59:01;9.60;59.10
60495;DHT22;46342;49.046;11.920;2023-03-20T04:01:30;9.60;59.20
60495;DHT22;46342;49.046;11.920;2023-03-20T04:04:00;9.60;59.10
60495;DHT22;46342;49.046;11.920;2023-03-20T04:06:27;9.60;58.90
60495;DHT22;46342;49.046;11.920;2023-03-20T04:08:53;9.60;58.90
60495;DHT22;46342;49.046;11.920;2023-03-20T04:11:24;9.60;58.80
60495;DHT22;46342;49.046;11.920;2023-03-20T04:13:51;9.60;59.20
60495;DHT22;46342;49.046;11.920;2023-03-20T04:16:18;9.60;59.10
60495;DHT22;46342;49.046;11.920;2023-03-20T04:18:45;9.60;59.20
60495;DHT22;46342;49.046;11.920;2023-03-20T04:21:10;9.60;59.20
60495;DHT22;46342;49.046;11.920;2023-03-20T04:23:36;9.60;59.10
60495;DHT22;46342;49.046;11.920;2023-03-20T04:26:02;9.60;59.20
60495;DHT22;46342;49.046;11.920;2023-03-20T04:28:28;9.60;59.30
60495;DHT22;46342;49.046;11.920;2023-03-20T04:30:55;9.70;59.40
60495;DHT22;46342;49.046;11.920;2023-03-20T04:33:21;9.70;59.40
60495;DHT22;46342;49.046;11.920;2023-03-20T04:35:48;9.70;59.40
60495;DHT22;46342;49.046;11.920;2023-03-20T04:38:15;9.70;59.40
60495;DHT22;46342;49.046;11.920;2023-03-20T04:40:42;9.70;59.60
60495;DHT22;46342;49.046;11.920;2023-03-20T04:43:08;9.70;59.60
60495;DHT22;46342;49.046;11.920;2023-03-20T04:45:34;9.70;59.50
60495;DHT22;46342;49.046;11.920;2023-03-20T04:48:00;9.70;59.60
60495;DHT22;46342;49.046;11.920;2023-03-20T04:50:26;9.70;59.60
60495;DHT22;46342;49.046;11.920;2023-03-20T04:52:51;9.80;59.70
60495;DHT22;46342;49.046;11.920;2023-03-20T04:55:17;9.80;60.60
60495;DHT22;46342;49.046;11.920;2023-03-20T04:57:42;9.80;59.80
60495;DHT22;46342;49.046;11.920;2023-03-20T05:00:08;9.80;59.80
60495;DHT22;46342;49.046;11.920;2023-03-20T05:02:35;9.90;59.90
60495;DHT22;46342;49.046;11.920;2023-03-20T05:05:01;9.90;59.90
60495;DHT22;46342;49.046;11.920;2023-03-20T05:07:26;9.90;59.80
60495;DHT22;46342;49.046;11.920;2023-03-20T05:09:52;9.90;59.70
60495;DHT22;46342;49.046;11.920;2023-03-20T05:12:18;9.90;59.70
60495;DHT22;46342;49.046;11.920;2023-03-20T05:14:43;9.90;59.70
60495;DHT22;46342;49.046;11.920;2023-03-20T05:17:09;9.90;59.70
60495;DHT22;46342;49.046;11.920;2023-03-20T05:19:34;9.90;59.70
60495;DHT22;46342;49.046;11.920;2023-03-20T05:22:01;9.90;59.70
60495;DHT22;46342;49.046;11.920;2023-03-20T05:24:27;9.90;59.80
60495;DHT22;46342;49.046;11.920;2023-03-20T05:26:53;10.00;59.00
60495;DHT22;46342;49.046;11.920;2023-03-20T05:29:19;10.00;59.10
60495;DHT22;46342;49.046;11.920;2023-03-20T05:31:45;10.00;59.10
60495;DHT22;46342;49.046;11.920;2023-03-20T05:34:11;10.00;59.20
60495;DHT22;46342;49.046;11.920;2023-03-20T05:36:42;10.00;59.20
60495;DHT22;46342;49.046;11.920;2023-03-20T05:39:07;10.00;59.20
60495;DHT22;46342;49.046;11.920;2023-03-20T05:41:33;10.00;59.20
60495;DHT22;46342;49.046;11.920;2023-03-20T05:43:58;10.00;59.20
60495;DHT22;46342;49.046;11.920;2023-03-20T05:46:24;10.10;59.40
60495;DHT22;46342;49.046;11.920;2023-03-20T05:48:50;10.10;59.40
60495;DHT22;46342;49.046;11.920;2023-03-20T05:51:16;10.10;59.50
60495;DHT22;46342;49.046;11.920;2023-03-20T05:53:42;10.10;59.50
60495;DHT22;46342;49.046;11.920;2023-03-20T05:56:07;10.10;59.50
60495;DHT22;46342;49.046;11.920;2023-03-20T05:58:33;10.10;59.60
60495;DHT22;46342;49.046;11.920;2023-03-20T06:00:59;10.10;59.50
60495;DHT22;46342;49.046;11.920;2023-03-20T06:03:25;10.10;59.50
60495;DHT22;46342;49.046;11.920;2023-03-20T06:05:50;10.20;59.50
60495;DHT22;46342;49.046;11.920;2023-03-20T06:08:16;10.20;59.50
60495;DHT22;46342;49.046;11.920;2023-03-20T06:10:41;10.20;59.60
60495;DHT22;46342;49.046;11.920;2023-03-20T06:13:07;10.20;59.70
60495;DHT22;46342;49.046;11.920;2023-03-20T06:15:32;10.20;59.80
60495;DHT22;46342;49.046;11.920;2023-03-20T06:17:58;10.20;59.90
60495;DHT22;46342;49.046;11.920;2023-03-20T06:20:24;10.30;60.00
60495;DHT22;46342;49.046;11.920;2023-03-20T06:22:49;10.30;60.00
60495;DHT22;46342;49.046;11.920;2023-03-20T06:25:15;10.30;60.00
60495;DHT22;46342;49.046;11.920;2023-03-20T06:27:41;10.30;60.10
60495;DHT22;46342;49.046;11.920;2023-03-20T06:30:07;10.30;60.20
60495;DHT22;46342;49.046;11.920;2023-03-20T06:32:33;10.40;60.50
60495;DHT22;46342;49.046;11.920;2023-03-20T06:34:59;10.40;60.50
60495;DHT22;46342;49.046;11.920;2023-03-20T06:37:24;10.40;60.50
60495;DHT22;46342;49.046;11.920;2023-03-20T06:39:50;10.50;60.70
60495;DHT22;46342;49.046;11.920;2023-03-20T06:42:16;10.50;60.60
60495;DHT22;46342;49.046;11.920;2023-03-20T06:44:42;10.50;61.50
60495;DHT22;46342;49.046;11.920;2023-03-20T06:47:07;10.50;60.60
60495;DHT22;46342;49.046;11.920;2023-03-20T06:49:33;10.60;60.60
60495;DHT22;46342;49.046;11.920;2023-03-20T06:51:59;10.60;61.60
60495;DHT22;46342;49.046;11.920;2023-03-20T06:54:25;10.60;60.60
60495;DHT22;46342;49.046;11.920;2023-03-20T06:56:51;10.70;60.90
60495;DHT22;46342;49.046;11.920;2023-03-20T06:59:17;10.70;60.80
60495;DHT22;46342;49.046;11.920;2023-03-20T07:01:42;10.80;60.90
60495;DHT22;46342;49.046;11.920;2023-03-20T07:04:08;10.80;60.90
60495;DHT22;46342;49.046;11.920;2023-03-20T07:06:33;10.80;60.90
60495;DHT22;46342;49.046;11.920;2023-03-20T07:08:59;10.90;61.10
60495;DHT22;46342;49.046;11.920;2023-03-20T07:11:25;10.90;61.10
60495;DHT22;46342;49.046;11.920;2023-03-20T07:13:52;10.90;61.10
60495;DHT22;46342;49.046;11.920;2023-03-20T07:16:17;11.00;61.80
60495;DHT22;46342;49.046;11.920;2023-03-20T07:18:43;11.00;61.30
60495;DHT22;46342;49.046;11.920;2023-03-20T07:21:10;11.10;61.50
60495;DHT22;46342;49.046;11.920;2023-03-20T07:23:41;11.10;61.70
60495;DHT22;46342;49.046;11.920;2023-03-20T07:26:06;11.20;61.50
60495;DHT22;46342;49.046;11.920;2023-03-20T07:28:32;11.20;62.60
60495;DHT22;46342;49.046;11.920;2023-03-20T07:30:57;11.20;61.70
60495;DHT22;46342;49.046;11.920;2023-03-20T07:33:23;11.30;61.60
60495;DHT22;46342;49.046;11.920;2023-03-20T07:35:53;11.30;61.70
60495;DHT22;46342;49.046;11.920;2023-03-20T07:38:19;11.40;62.50
60495;DHT22;46342;49.046;11.920;2023-03-20T07:40:45;11.40;61.80
60495;DHT22;46342;49.046;11.920;2023-03-20T07:43:10;11.40;61.80
60495;DHT22;46342;49.046;11.920;2023-03-20T07:45:36;11.50;62.00
60495;DHT22;46342;49.046;11.920;2023-03-20T07:48:05;11.50;61.90
60495;DHT22;46342;49.046;11.920;2023-03-20T07:50:30;11.60;62.00
60495;DHT22;46342;49.046;11.920;2023-03-20T07:52:57;11.60;62.00
60495;DHT22;46342;49.046;11.920;2023-03-20T07:55:22;11.70;62.20
60495;DHT22;46342;49.046;11.920;2023-03-20T07:57:48;11.70;61.90
60495;DHT22;46342;49.046;11.920;2023-03-20T08:00:16;11.70;62.00
60495;DHT22;46342;49.046;11.920;2023-03-20T08:02:41;11.80;63.00
60495;DHT22;46342;49.046;11.920;2023-03-20T08:05:07;11.90;62.00
60495;DHT22;46342;49.046;11.920;2023-03-20T08:07:34;11.90;61.90
60495;DHT22;46342;49.046;11.920;2023-03-20T08:10:00;11.90;61.90
60495;DHT22;46342;49.046;11.920;2023-03-20T08:12:25;11.90;61.90
60495;DHT22;46342;49.046;11.920;2023-03-20T08:14:51;12.00;61.90
60495;DHT22;46342;49.046;11.920;2023-03-20T08:17:17;12.00;61.90
60495;DHT22;46342;49.046;11.920;2023-03-20T08:19:43;12.10;62.00
60495;DHT22;46342;49.046;11.920;2023-03-20T08:22:08;12.10;61.90
60495;DHT22;46342;49.046;11.920;2023-03-20T08:24:34;12.10;62.00
60495;DHT22;46342;49.046;11.920;2023-03-20T08:27:00;12.20;62.10
60495;DHT22;46342;49.046;11.920;2023-03-20T08:29:26;12.20;62.00
60495;DHT22;46342;49.046;11.920;2023-03-20T08:31:51;12.30;62.10
60495;DHT22;46342;49.046;11.920;2023-03-20T08:34:17;12.30;61.90
60495;DHT22;46342;49.046;11.920;2023-03-20T08:36:42;12.30;61.90
60495;DHT22;46342;49.046;11.920;2023-03-20T08:39:08;12.40;62.00
60495;DHT22;46342;49.046;11.920;2023-03-20T08:41:37;12.40;62.10
60495;DHT22;46342;49.046;11.920;2023-03-20T08:44:08;12.50;62.50
60495;DHT22;46342;49.046;11.920;2023-03-20T08:46:39;12.50;62.20
60495;DHT22;46342;49.046;11.920;2023-03-20T08:49:05;12.60;62.50
60495;DHT22;46342;49.046;11.920;2023-03-20T08:51:31;12.60;62.20
60495;DHT22;46342;49.046;11.920;2023-03-20T08:53:57;12.70;62.30
60495;DHT22;46342;49.046;11.920;2023-03-20T08:56:23;12.80;62.20
60495;DHT22;46342;49.046;11.920;2023-03-20T08:58:48;12.80;62.00
60495;DHT22;46342;49.046;11.920;2023-03-20T09:01:16;12.90;61.90
60495;DHT22;46342;49.046;11.920;2023-03-20T09:03:44;13.00;62.00
60495;DHT22;46342;49.046;11.920;2023-03-20T09:06:10;13.00;61.60
60495;DHT22;46342;49.046;11.920;2023-03-20T09:08:36;13.10;61.70
60495;DHT22;46342;49.046;11.920;2023-03-20T09:11:02;13.10;61.80
60495;DHT22;46342;49.046;11.920;2023-03-20T09:13:28;13.20;62.00
60495;DHT22;46342;49.046;11.920;2023-03-20T09:15:54;13.30;61.90
60495;DHT22;46342;49.046;11.920;2023-03-20T09:18:20;13.30;61.70
60495;DHT22;46342;49.046;11.920;2023-03-20T09:20:46;13.40;61.70
60495;DHT22;46342;49.046;11.920;2023-03-20T09:23:12;13.50;61.60
60495;DHT22;46342;49.046;11.920;2023-03-20T09:25:37;13.50;61.30
60495;DHT22;46342;49.046;11.920;2023-03-20T09:28:03;13.60;61.10
60495;DHT22;46342;49.046;11.920;2023-03-20T09:30:29;13.60;60.70
60495;DHT22;46342;49.046;11.920;2023-03-20T09:32:54;13.70;60.60
60495;DHT22;46342;49.046;11.920;2023-03-20T09:35:20;13.70;60.40
60495;DHT22;46342;49.046;11.920;2023-03-20T09:37:46;13.70;60.40
60495;DHT22;46342;49.046;11.920;2023-03-20T09:40:32;13.80;60.40
60495;DHT22;46342;49.046;11.920;2023-03-20T09:49:12;13.90;60.40
60495;DHT22;46342;49.046;11.920;2023-03-20T09:51:58;14.00;59.90
60495;DHT22;46342;49.046;11.920;2023-03-20T09:54:40;14.00;59.80
60495;DHT22;46342;49.046;11.920;2023-03-20T09:57:24;14.00;59.80
60495;DHT22;46342;49.046;11.920;2023-03-20T09:59:55;14.10;60.00
60495;DHT22;46342;49.046;11.920;2023-03-20T10:05:25;14.20;59.90
60495;DHT22;46342;49.046;11.920;2023-03-20T10:07:55;14.30;59.90
60495;DHT22;46342;49.046;11.920;2023-03-20T10:15:55;14.40;59.80
60495;DHT22;46342;49.046;11.920;2023-03-20T10:18:29;14.50;59.80
60495;DHT22;46342;49.046;11.920;2023-03-20T10:21:05;14.60;59.70
60495;DHT22;46342;49.046;11.920;2023-03-20T10:23:42;14.60;59.80
60495;DHT22;46342;49.046;11.920;2023-03-20T10:26:11;14.70;59.90
60495;DHT22;46342;49.046;11.920;2023-03-20T10:28:56;14.80;59.70
60495;DHT22;46342;49.046;11.920;2023-03-20T10:32:00;14.90;59.40
60495;DHT22;46342;49.046;11.920;2023-03-20T10:34:49;15.00;59.10
60495;DHT22;46342;49.046;11.920;2023-03-20T10:40:22;15.10;59.00
60495;DHT22;46342;49.046;11.920;2023-03-20T10:42:50;15.20;58.60
60495;DHT22;46342;49.046;11.920;2023-03-20T10:47:46;15.30;59.10
60495;DHT22;46342;49.046;11.920;2023-03-20T10:50:44;15.30;59.20
60495;DHT22;46342;49.046;11.920;2023-03-20T10:53:22;15.50;59.40
60495;DHT22;46342;49.046;11.920;2023-03-20T10:55:52;15.60;59.40
60495;DHT22;46342;49.046;11.920;2023-03-20T10:58:22;15.70;59.80
60495;DHT22;46342;49.046;11.920;2023-03-20T11:00:49;15.80;59.60
60495;DHT22;46342;49.046;11.920;2023-03-20T11:03:26;16.00;60.10
60495;DHT22;46342;49.046;11.920;2023-03-20T11:06:04;16.30;59.40
60495;DHT22;46342;49.046;11.920;2023-03-20T11:08:39;16.40;59.80
60495;DHT22;46342;49.046;11.920;2023-03-20T11:11:05;16.50;59.10
60495;DHT22;46342;49.046;11.920;2023-03-20T11:13:40;16.70;59.30
60495;DHT22;46342;49.046;11.920;2023-03-20T11:18:40;16.90;57.80
60495;DHT22;46342;49.046;11.920;2023-03-20T11:21:13;16.90;58.10
60495;DHT22;46342;49.046;11.920;2023-03-20T11:23:39;17.00;57.70
60495;DHT22;46342;49.046;11.920;2023-03-20T11:26:07;17.00;57.60
60495;DHT22;46342;49.046;11.920;2023-03-20T11:28:40;17.00;57.30
60495;DHT22;46342;49.046;11.920;2023-03-20T11:33:42;17.10;56.70
60495;DHT22;46342;49.046;11.920;2023-03-20T11:36:23;17.10;56.90
60495;DHT22;46342;49.046;11.920;2023-03-20T11:38:51;17.10;56.50
60495;DHT22;46342;49.046;11.920;2023-03-20T11:41:23;17.10;56.90
60495;DHT22;46342;49.046;11.920;2023-03-20T11:43:49;17.10;56.50
60495;DHT22;46342;49.046;11.920;2023-03-20T11:46:15;17.10;56.60
60495;DHT22;46342;49.046;11.920;2023-03-20T11:48:44;17.10;56.50
60495;DHT22;46342;49.046;11.920;2023-03-20T11:56:19;17.00;55.30
60495;DHT22;46342;49.046;11.920;2023-03-20T12:01:51;17.00;55.20
60495;DHT22;46342;49.046;11.920;2023-03-20T12:04:29;16.90;54.60
60495;DHT22;46342;49.046;11.920;2023-03-20T12:07:05;16.80;54.50
60495;DHT22;46342;49.046;11.920;2023-03-20T12:09:57;16.70;54.90
60495;DHT22;46342;49.046;11.920;2023-03-20T12:12:35;16.70;54.50
60495;DHT22;46342;49.046;11.920;2023-03-20T12:15:20;16.60;54.70
60495;DHT22;46342;49.046;11.920;2023-03-20T12:17:53;16.60;54.60
60495;DHT22;46342;49.046;11.920;2023-03-20T12:23:29;16.40;54.70
60495;DHT22;46342;49.046;11.920;2023-03-20T12:28:43;16.30;54.60
60495;DHT22;46342;49.046;11.920;2023-03-20T12:31:29;16.30;55.10
60495;DHT22;46342;49.046;11.920;2023-03-20T12:34:04;16.30;55.20
60495;DHT22;46342;49.046;11.920;2023-03-20T12:36:43;16.30;55.50
60495;DHT22;46342;49.046;11.920;2023-03-20T12:39:30;16.30;55.30
60495;DHT22;46342;49.046;11.920;2023-03-20T12:58:35;16.30;54.70
60495;DHT22;46342;49.046;11.920;2023-03-20T13:01:19;16.30;54.00
60495;DHT22;46342;49.046;11.920;2023-03-20T13:12:27;16.30;54.30
60495;DHT22;46342;49.046;11.920;2023-03-20T13:17:41;16.20;54.60
60495;DHT22;46342;49.046;11.920;2023-03-20T13:20:30;16.40;54.20
60495;DHT22;46342;49.046;11.920;2023-03-20T13:23:09;16.20;54.50
60495;DHT22;46342;49.046;11.920;2023-03-20T13:28:37;16.20;53.80
60495;DHT22;46342;49.046;11.920;2023-03-20T13:39:41;16.10;54.40
60495;DHT22;46342;49.046;11.920;2023-03-20T13:42:12;16.10;54.30
60495;DHT22;46342;49.046;11.920;2023-03-20T13:44:40;16.10;54.30
60495;DHT22;46342;49.046;11.920;2023-03-20T13:47:22;16.10;54.40
60495;DHT22;46342;49.046;11.920;2023-03-20T13:56:02;16.10;54.00
60495;DHT22;46342;49.046;11.920;2023-03-20T13:58:45;16.10;54.00
60495;DHT22;46342;49.046;11.920;2023-03-20T14:01:28;16.00;54.00
60495;DHT22;46342;49.046;11.920;2023-03-20T14:03:57;16.00;54.00
60495;DHT22;46342;49.046;11.920;2023-03-20T14:08:53;16.00;54.10
60495;DHT22;46342;49.046;11.920;2023-03-20T14:14:13;15.90;54.00
60495;DHT22;46342;49.046;11.920;2023-03-20T14:16:40;16.00;53.70
60495;DHT22;46342;49.046;11.920;2023-03-20T14:19:23;15.90;54.20
60495;DHT22;46342;49.046;11.920;2023-03-20T14:21:54;15.90;53.80
60495;DHT22;46342;49.046;11.920;2023-03-20T14:24:22;15.80;54.00
60495;DHT22;46342;49.046;11.920;2023-03-20T14:27:00;15.80;54.30
60495;DHT22;46342;49.046;11.920;2023-03-20T14:29:32;15.80;54.00
60495;DHT22;46342;49.046;11.920;2023-03-20T14:37:55;15.80;54.20
60495;DHT22;46342;49.046;11.920;2023-03-20T14:40:23;15.80;54.70
60495;DHT22;46342;49.046;11.920;2023-03-20T14:43:16;15.80;54.30
60495;DHT22;46342;49.046;11.920;2023-03-20T14:46:00;15.80;54.00
60495;DHT22;46342;49.046;11.920;2023-03-20T14:53:55;15.70;54.10
60495;DHT22;46342;49.046;11.920;2023-03-20T14:56:30;15.70;54.10
60495;DHT22;46342;49.046;11.920;2023-03-20T14:59:04;15.70;54.10
60495;DHT22;46342;49.046;11.920;2023-03-20T15:07:16;15.70;54.40
60495;DHT22;46342;49.046;11.920;2023-03-20T15:09:48;15.70;54.90
60495;DHT22;46342;49.046;11.920;2023-03-20T15:12:19;15.60;54.30
60495;DHT22;46342;49.046;11.920;2023-03-20T15:14:59;15.60;54.40
60495;DHT22;46342;49.046;11.920;2023-03-20T15:22:59;15.60;54.40
60495;DHT22;46342;49.046;11.920;2023-03-20T15:25:40;15.60;54.30
60495;DHT22;46342;49.046;11.920;2023-03-20T15:28:15;15.60;54.30
60495;DHT22;46342;49.046;11.920;2023-03-20T15:30:42;15.60;54.50
60495;DHT22;46342;49.046;11.920;2023-03-20T15:33:48;15.60;54.50
60495;DHT22;46342;49.046;11.920;2023-03-20T15:36:28;15.60;54.40
60495;DHT22;46342;49.046;11.920;2023-03-20T15:39:15;15.60;54.30
60495;DHT22;46342;49.046;11.920;2023-03-20T15:41:47;15.60;54.20
60495;DHT22;46342;49.046;11.920;2023-03-20T15:49:41;15.50;54.30
60495;DHT22;46342;49.046;11.920;2023-03-20T15:52:31;15.50;54.50
60495;DHT22;46342;49.046;11.920;2023-03-20T15:55:02;15.50;54.40
60495;DHT22;46342;49.046;11.920;2023-03-20T15:57:39;15.40;54.40
60495;DHT22;46342;49.046;11.920;2023-03-20T16:00:08;15.40;54.30
60495;DHT22;46342;49.046;11.920;2023-03-20T16:02:37;15.40;54.40
60495;DHT22;46342;49.046;11.920;2023-03-20T16:05:03;15.40;54.50
60495;DHT22;46342;49.046;11.920;2023-03-20T16:07:31;15.40;54.50
60495;DHT22;46342;49.046;11.920;2023-03-20T16:09:58;15.40;54.50
60495;DHT22;46342;49.046;11.920;2023-03-20T16:12:24;15.30;54.50
60495;DHT22;46342;49.046;11.920;2023-03-20T16:14:53;15.30;54.50
60495;DHT22;46342;49.046;11.920;2023-03-20T16:17:20;15.30;54.50
60495;DHT22;46342;49.046;11.920;2023-03-20T16:19:47;15.30;54.00
60495;DHT22;46342;49.046;11.920;2023-03-20T16:22:28;15.30;54.60
60495;DHT22;46342;49.046;11.920;2023-03-20T16:24:57;15.30;54.40
60495;DHT22;46342;49.046;11.920;2023-03-20T16:27:34;15.30;54.60
60495;DHT22;46342;49.046;11.920;2023-03-20T16:33:04;15.30;54.50
60495;DHT22;46342;49.046;11.920;2023-03-20T16:35:41;15.30;54.60
60495;DHT22;46342;49.046;11.920;2023-03-20T16:38:15;15.20;55.00
60495;DHT22;46342;49.046;11.920;2023-03-20T16:40:46;15.20;54.50
60495;DHT22;46342;49.046;11.920;2023-03-20T16:43:17;15.20;54.50
60495;DHT22;46342;49.046;11.920;2023-03-20T16:45:51;15.20;54.50
60495;DHT22;46342;49.046;11.920;2023-03-20T16:50:59;15.10;54.50
60495;DHT22;46342;49.046;11.920;2023-03-20T16:53:28;15.10;54.40
60495;DHT22;46342;49.046;11.920;2023-03-20T16:55:56;15.10;54.50
60495;DHT22;46342;49.046;11.920;2023-03-20T16:58:28;15.20;54.60
60495;DHT22;46342;49.046;11.920;2023-03-20T17:01:04;15.00;54.50
60495;DHT22;46342;49.046;11.920;2023-03-20T17:03:35;15.00;54.40
60495;DHT22;46342;49.046;11.920;2023-03-20T17:06:29;15.00;54.40
60495;DHT22;46342;49.046;11.920;2023-03-20T17:09:09;15.00;54.40
60495;DHT22;46342;49.046;11.920;2023-03-20T17:11:39;14.90;54.40
60495;DHT22;46342;49.046;11.920;2023-03-20T17:14:09;14.90;54.40
60495;DHT22;46342;49.046;11.920;2023-03-20T17:16:34;14.90;54.40
60495;DHT22;46342;49.046;11.920;2023-03-20T17:19:05;14.80;54.40
60495;DHT22;46342;49.046;11.920;2023-03-20T17:21:32;14.80;54.50
60495;DHT22;46342;49.046;11.920;2023-03-20T17:23:58;14.80;54.50
60495;DHT22;46342;49.046;11.920;2023-03-20T17:26:24;14.70;54.50
60495;DHT22;46342;49.046;11.920;2023-03-20T17:28:50;14.70;54.50
60495;DHT22;46342;49.046;11.920;2023-03-20T17:31:16;14.70;55.20
60495;DHT22;46342;49.046;11.920;2023-03-20T17:33:43;14.70;55.20
60495;DHT22;46342;49.046;11.920;2023-03-20T17:36:24;14.70;54.70
60495;DHT22;46342;49.046;11.920;2023-03-20T17:38:54;14.70;54.70
60495;DHT22;46342;49.046;11.920;2023-03-20T17:41:20;14.60;54.60
60495;DHT22;46342;49.046;11.920;2023-03-20T17:43:47;14.60;54.70
60495;DHT22;46342;49.046;11.920;2023-03-20T17:46:20;14.60;54.70
60495;DHT22;46342;49.046;11.920;2023-03-20T17:48:47;14.50;54.70
60495;DHT22;46342;49.046;11.920;2023-03-20T17:51:13;14.50;54.70
60495;DHT22;46342;49.046;11.920;2023-03-20T17:53:39;14.50;54.70
60495;DHT22;46342;49.046;11.920;2023-03-20T17:56:15;14.50;54.70
60495;DHT22;46342;49.046;11.920;2023-03-20T17:58:41;14.50;54.90
60495;DHT22;46342;49.046;11.920;2023-03-20T18:01:09;14.40;55.40
60495;DHT22;46342;49.046;11.920;2023-03-20T18:03:35;14.40;54.80
60495;DHT22;46342;49.046;11.920;2023-03-20T18:06:04;14.40;54.70
60495;DHT22;46342;49.046;11.920;2023-03-20T18:08:30;14.30;54.70
60495;DHT22;46342;49.046;11.920;2023-03-20T18:10:56;14.30;54.70
60495;DHT22;46342;49.046;11.920;2023-03-20T18:13:24;14.30;54.80
60495;DHT22;46342;49.046;11.920;2023-03-20T18:15:52;14.30;54.90
60495;DHT22;46342;49.046;11.920;2023-03-20T18:18:18;14.20;54.80
60495;DHT22;46342;49.046;11.920;2023-03-20T18:20:44;14.20;54.90